Terminal Aerodrome Forecast
Issued by NWS Cleveland, OH

Home | Current Version | Previous Version | Text Only | Print | Product List | Glossary Off
Versions: 1 2 3 4 5 6 7 8 9 10 11 12 13 14 15 16 17

000
FTUS41 KCLE 222300 AAB
TAFERI
TAF AMD
KERI 222306Z 2223/2318 25015G22KT P6SM BKN035 OVC050
      TEMPO 2223/2224 5SM -PLRA OVC025
     FM230100 25012KT P6SM OVC035
     FM230500 25012KT 5SM -SHSN BKN020 OVC035
     FM231000 27012G20KT P6SM VCSH OVC025=

USA.gov is the U.S. government's official web portal to all federal, state and local government web resources and services.